Time;durP1;ratioP1;P1;durP2;ratioP2;P2;SDS_P1;SDS_P2;PMS_P1;PMS_P2;Temp;Humidity;BMP_temperature;BMP_pressure;BME280_temperature;BME280_humidity;BME280_pressure;Samples;Min_cycle;Max_cycle;Signal;HPM_P1;HPM_P2
2021/09/24 00:00:15;;;;;;;21.77;8.80;;;;;;;-149.78;100.00;50207.44;4824653;29;20042;-60
2021/09/24 00:02:41;;;;;;;25.70;9.57;;;;;;;-149.78;100.00;50178.09;4824254;29;20050;-60
2021/09/24 00:05:08;;;;;;;28.40;10.13;;;;;;;-149.78;100.00;50197.66;4823024;29;20045;-60
2021/09/24 00:07:34;;;;;;;19.63;9.82;;;;;;;-149.78;100.00;50185.91;4823984;29;20046;-60
2021/09/24 00:10:00;;;;;;;29.88;11.65;;;;;;;-149.78;100.00;50209.38;4822750;29;20041;-60
2021/09/24 00:12:27;;;;;;;25.83;12.00;;;;;;;-149.78;100.00;50176.13;4824286;29;20106;-60
2021/09/24 00:14:53;;;;;;;23.27;10.18;;;;;;;-149.78;100.00;50211.34;4821945;29;20046;-60
2021/09/24 00:17:18;;;;;;;23.52;9.68;;;;;;;-149.78;100.00;50170.25;4808362;29;20049;-60
2021/09/24 00:19:44;;;;;;;22.55;9.15;;;;;;;-149.78;100.00;50209.38;4824119;29;20046;-60
2021/09/24 00:22:10;;;;;;;17.92;8.27;;;;;;;-149.78;100.00;50189.81;4824189;29;20054;-60
2021/09/24 00:24:35;;;;;;;28.15;9.05;;;;;;;-149.78;100.00;50221.13;4823538;29;20265;-60
2021/09/24 00:27:02;;;;;;;19.63;8.75;;;;;;;-149.78;100.00;50197.66;4805923;29;20042;-60
2021/09/24 00:29:28;;;;;;;25.45;8.95;;;;;;;-149.78;100.00;50197.66;4824978;29;20045;-60
2021/09/24 00:31:53;;;;;;;19.10;8.25;;;;;;;-149.78;100.00;50201.56;4821087;29;20042;-60
2021/09/24 00:34:19;;;;;;;22.98;8.30;;;;;;;-149.78;100.00;50189.81;4823798;29;20030;-59
2021/09/24 00:36:44;;;;;;;19.45;7.68;;;;;;;-149.78;100.00;50213.28;4824517;29;20046;-60
2021/09/24 00:39:10;;;;;;;20.27;6.55;;;;;;;-149.78;100.00;50221.13;4807490;29;20039;-60
2021/09/24 00:41:36;;;;;;;20.95;7.22;;;;;;;-149.78;100.00;50201.56;4823750;29;20046;-60
2021/09/24 00:44:04;;;;;;;27.40;8.23;;;;;;;-149.78;100.00;50182.00;4822522;29;20045;-60
2021/09/24 00:46:29;;;;;;;21.85;7.18;;;;;;;-149.78;100.00;50197.66;4823833;29;20054;-60
2021/09/24 00:48:55;;;;;;;18.60;7.32;;;;;;;-149.78;100.00;50207.44;4822946;29;20026;-60
2021/09/24 00:51:20;;;;;;;19.67;6.50;;;;;;;-149.78;100.00;50225.03;4823456;29;20041;-60
2021/09/24 00:53:46;;;;;;;16.13;6.28;;;;;;;-149.78;100.00;50182.00;4823117;29;20544;-60
2021/09/24 00:56:12;;;;;;;22.27;6.85;;;;;;;-149.78;100.00;50209.38;4824341;29;20085;-60
2021/09/24 00:58:38;;;;;;;13.05;4.90;;;;;;;-149.78;100.00;50203.50;4807235;29;20053;-60
2021/09/24 01:01:04;;;;;;;12.10;4.97;;;;;;;-149.78;100.00;50209.38;4823778;29;20038;-60
2021/09/24 01:03:30;;;;;;;11.77;5.18;;;;;;;-149.78;100.00;50201.56;4823806;29;20035;-60
2021/09/24 01:05:56;;;;;;;11.48;4.22;;;;;;;-149.78;100.00;50174.19;4823544;29;20050;-60
2021/09/24 01:08:22;;;;;;;16.23;4.78;;;;;;;-149.78;100.00;50197.66;4822660;29;20098;-60
2021/09/24 01:10:48;;;;;;;22.40;4.90;;;;;;;-149.78;100.00;50213.28;4823513;29;20042;-60
2021/09/24 01:13:14;;;;;;;12.38;4.22;;;;;;;-149.78;100.00;50225.03;4822912;29;20118;-59
2021/09/24 01:15:41;;;;;;;11.00;4.60;;;;;;;-149.78;100.00;50225.03;4824078;29;20470;-60
2021/09/24 01:18:07;;;;;;;20.65;4.45;;;;;;;-149.78;100.00;50205.47;4821675;29;20119;-60
2021/09/24 01:20:33;;;;;;;15.57;4.13;;;;;;;-149.78;100.00;50232.84;4822426;29;20482;-59
2021/09/24 01:22:58;;;;;;;14.10;4.28;;;;;;;-149.78;100.00;50189.81;4822311;29;20038;-60
2021/09/24 01:25:25;;;;;;;18.58;4.25;;;;;;;-149.78;100.00;50201.56;4822891;29;20403;-60
2021/09/24 01:27:54;;;;;;;12.15;4.25;;;;;;;-149.78;100.00;50197.66;4805426;29;20095;-60
2021/09/24 01:30:21;;;;;;;11.35;3.72;;;;;;;-149.78;100.00;50213.28;4822489;29;20136;-60
2021/09/24 01:32:47;;;;;;;11.73;3.90;;;;;;;-149.78;100.00;50219.16;4828007;29;20049;-60
2021/09/24 01:35:14;;;;;;;11.95;3.47;;;;;;;-149.78;100.00;50185.91;4825046;29;20116;-60
2021/09/24 01:37:40;;;;;;;15.45;3.83;;;;;;;-149.78;100.00;50201.56;4819490;29;20179;-60
2021/09/24 01:40:14;;;;;;;9.52;3.50;;;;;;;-149.78;100.00;50182.00;4798365;29;20042;-60
2021/09/24 01:42:42;;;;;;;16.85;3.83;;;;;;;-149.78;100.00;50197.66;4820187;29;20034;-60
2021/09/24 01:45:08;;;;;;;14.52;3.70;;;;;;;-149.78;100.00;50248.50;4822923;29;20049;-60
2021/09/24 01:47:35;;;;;;;16.38;4.13;;;;;;;-149.78;100.00;50217.19;4822882;29;20065;-60
2021/09/24 01:50:01;;;;;;;12.30;3.80;;;;;;;-149.78;100.00;50228.94;4835562;29;20053;-61
2021/09/24 01:52:28;;;;;;;8.27;3.60;;;;;;;-149.78;100.00;50195.69;4835812;29;20101;-60
2021/09/24 01:54:54;;;;;;;14.80;3.88;;;;;;;-149.78;100.00;50185.91;4823493;29;20066;-60
2021/09/24 01:57:20;;;;;;;11.35;3.65;;;;;;;-149.78;100.00;50240.66;4823244;29;20098;-60
2021/09/24 01:59:46;;;;;;;8.90;3.60;;;;;;;-149.78;100.00;50236.75;4823684;29;20487;-60
2021/09/24 02:02:11;;;;;;;13.27;3.67;;;;;;;-149.78;100.00;50201.56;4822098;29;20588;-60
2021/09/24 02:04:37;;;;;;;15.43;3.88;;;;;;;-149.78;100.00;50211.34;4829223;29;20497;-60
2021/09/24 02:07:03;;;;;;;9.38;3.55;;;;;;;-149.78;100.00;50217.19;4821546;29;20175;-60
2021/09/24 02:09:28;;;;;;;11.73;3.90;;;;;;;-149.78;100.00;50185.91;4824942;29;20065;-60
2021/09/24 02:11:54;;;;;;;11.52;3.15;;;;;;;-149.78;100.00;50189.81;4821045;29;20038;-60
2021/09/24 02:14:20;;;;;;;15.55;3.70;;;;;;;-149.78;100.00;50209.38;4836362;29;20530;-60
2021/09/24 02:16:45;;;;;;;10.27;3.55;;;;;;;-149.78;100.00;50230.88;4824017;29;20049;-60
2021/09/24 02:19:11;;;;;;;10.80;4.45;;;;;;;-149.78;100.00;50225.03;4832242;29;20082;-60
2021/09/24 02:21:38;;;;;;;12.40;4.05;;;;;;;-149.78;100.00;50217.19;4826147;29;20050;-60
2021/09/24 02:24:04;;;;;;;15.52;3.97;;;;;;;-149.78;100.00;50217.19;4824556;29;20035;-60
2021/09/24 02:26:30;;;;;;;9.00;4.50;;;;;;;-149.78;100.00;50209.38;4815579;29;20050;-60
2021/09/24 02:28:55;;;;;;;10.43;4.07;;;;;;;-149.78;100.00;50236.75;4823814;29;20034;-60
2021/09/24 02:31:21;;;;;;;10.52;3.88;;;;;;;-149.78;100.00;50262.19;4825750;29;20037;-60
2021/09/24 02:33:46;;;;;;;10.52;4.03;;;;;;;-149.78;100.00;50248.50;4827073;29;20038;-60
2021/09/24 02:36:12;;;;;;;13.90;3.90;;;;;;;-149.78;100.00;50260.22;4830447;29;20554;-60
2021/09/24 02:38:37;;;;;;;11.68;4.20;;;;;;;-149.78;100.00;50226.97;4824026;29;20049;-60
2021/09/24 02:41:03;;;;;;;13.20;5.53;;;;;;;-149.78;100.00;50238.72;4802627;29;20038;-60
2021/09/24 02:43:30;;;;;;;11.98;4.50;;;;;;;-149.78;100.00;50185.91;4832960;29;20042;-60
2021/09/24 02:45:56;;;;;;;15.10;6.30;;;;;;;-149.78;100.00;50197.66;4833551;29;20232;-60
2021/09/24 02:48:22;;;;;;;14.35;4.10;;;;;;;-149.78;100.00;50248.50;4825829;29;20043;-60
2021/09/24 02:50:47;;;;;;;13.63;4.80;;;;;;;-149.78;100.00;50219.16;4824950;29;20054;-60
2021/09/24 02:53:13;;;;;;;11.23;4.13;;;;;;;-149.78;100.00;50232.84;4824837;29;20490;-60
2021/09/24 02:55:39;;;;;;;13.60;4.95;;;;;;;-149.78;100.00;50232.84;4826109;29;20073;-60
2021/09/24 02:58:04;;;;;;;16.83;4.68;;;;;;;-149.78;100.00;50213.28;4823896;29;20045;-60
2021/09/24 03:00:30;;;;;;;11.95;4.63;;;;;;;-149.78;100.00;50228.94;4825533;29;20055;-60
2021/09/24 03:02:56;;;;;;;14.32;5.05;;;;;;;-149.78;100.00;50230.88;4825326;29;20046;-60
2021/09/24 03:05:23;;;;;;;14.00;5.35;;;;;;;-149.78;100.00;50228.94;4827236;29;20065;-60
2021/09/24 03:07:49;;;;;;;18.48;6.70;;;;;;;-149.78;100.00;50248.50;4824678;29;20478;-60
2021/09/24 03:10:15;;;;;;;12.45;5.25;;;;;;;-149.78;100.00;50217.19;4825025;29;20058;-60
2021/09/24 03:12:40;;;;;;;17.15;6.03;;;;;;;-149.78;100.00;50246.53;4825211;29;20532;-60
2021/09/24 03:15:07;;;;;;;16.25;5.93;;;;;;;-149.78;100.00;50225.03;4805184;29;20457;-60
2021/09/24 03:17:33;;;;;;;11.00;5.60;;;;;;;-149.78;100.00;50217.19;4825131;29;20110;-60
2021/09/24 03:19:59;;;;;;;16.05;6.05;;;;;;;-149.78;100.00;50248.50;4821929;29;20448;-59
2021/09/24 03:22:27;;;;;;;16.95;6.75;;;;;;;-149.78;100.00;50248.50;4806505;29;20053;-60
2021/09/24 03:24:53;;;;;;;16.75;6.38;;;;;;;-149.78;100.00;50225.03;4823738;29;20034;-60
2021/09/24 03:27:19;;;;;;;17.25;6.53;;;;;;;-149.78;100.00;50193.72;4825276;29;20129;-60
2021/09/24 03:29:45;;;;;;;15.35;7.30;;;;;;;-149.78;100.00;50217.19;4825932;29;20030;-60
2021/09/24 03:32:10;;;;;;;19.33;7.47;;;;;;;-149.78;100.00;50240.66;4825411;29;20051;-60
2021/09/24 03:34:36;;;;;;;14.07;7.03;;;;;;;-149.78;100.00;50226.97;4825126;29;20134;-60
2021/09/24 03:37:03;;;;;;;19.63;7.88;;;;;;;-149.78;100.00;50244.59;4823142;29;20034;-60
2021/09/24 03:39:28;;;;;;;23.35;8.18;;;;;;;-149.78;100.00;50209.38;4825050;29;20042;-60
2021/09/24 03:41:55;;;;;;;20.55;8.10;;;;;;;-149.78;100.00;50244.59;4823545;29;20050;-60
2021/09/24 03:44:22;;;;;;;19.00;8.48;;;;;;;-149.78;100.00;50228.94;4824092;29;20163;-60
2021/09/24 03:46:48;;;;;;;23.38;8.60;;;;;;;-149.78;100.00;50264.13;4823537;29;20054;-60
2021/09/24 03:49:13;;;;;;;18.25;8.25;;;;;;;-149.78;100.00;50268.03;4822374;29;20038;-60
2021/09/24 03:51:39;;;;;;;26.88;9.13;;;;;;;-149.78;100.00;50242.63;4825216;29;20125;-60
2021/09/24 03:54:05;;;;;;;18.08;8.85;;;;;;;-149.78;100.00;50260.22;4805490;29;20452;-60
2021/09/24 03:56:31;;;;;;;20.58;7.65;;;;;;;-149.78;100.00;50250.44;4838746;29;20041;-60
2021/09/24 03:58:56;;;;;;;16.38;7.68;;;;;;;-149.78;100.00;50240.66;4839356;29;20034;-60
2021/09/24 04:01:22;;;;;;;20.67;7.88;;;;;;;-149.78;100.00;50226.97;4828129;29;20175;-60
2021/09/24 04:03:48;;;;;;;24.38;8.98;;;;;;;-149.78;100.00;50221.13;4837638;29;20034;-60
2021/09/24 04:06:13;;;;;;;20.05;8.02;;;;;;;-149.78;100.00;50240.66;4823613;29;20050;-60
2021/09/24 04:08:39;;;;;;;18.52;8.98;;;;;;;-149.78;100.00;50240.66;4824389;29;20035;-60
2021/09/24 04:11:05;;;;;;;17.00;8.23;;;;;;;-149.78;100.00;50236.75;4835062;29;20486;-60
2021/09/24 04:13:31;;;;;;;20.58;7.95;;;;;;;-149.78;100.00;50221.13;4838615;29;20148;-60
2021/09/24 04:15:56;;;;;;;17.73;8.63;;;;;;;-149.78;100.00;50201.56;4827678;29;20034;-60
2021/09/24 04:18:22;;;;;;;19.80;8.75;;;;;;;-149.78;100.00;50271.97;4833342;29;20467;-60
2021/09/24 04:20:48;;;;;;;20.27;9.20;;;;;;;-149.78;100.00;50252.41;4823756;29;20039;-60
2021/09/24 04:23:14;;;;;;;19.88;9.13;;;;;;;-149.78;100.00;50246.53;4831311;29;20030;-60
2021/09/24 04:25:41;;;;;;;23.20;9.65;;;;;;;-149.78;100.00;50236.75;4824749;29;20402;-60
2021/09/24 04:28:07;;;;;;;16.00;8.05;;;;;;;-149.78;100.00;50266.09;4827034;29;20113;-60
2021/09/24 04:30:33;;;;;;;24.52;8.50;;;;;;;-149.78;100.00;50228.94;4826620;29;20494;-60
2021/09/24 04:32:59;;;;;;;21.25;9.20;;;;;;;-149.78;100.00;50244.59;4823472;29;20042;-60
2021/09/24 04:35:25;;;;;;;16.70;8.55;;;;;;;-149.78;100.00;50283.69;4822025;29;20083;-60
2021/09/24 04:37:52;;;;;;;21.67;8.50;;;;;;;-149.78;100.00;50260.22;4823494;29;20107;-60
2021/09/24 04:40:18;;;;;;;16.00;8.57;;;;;;;-149.78;100.00;50211.34;4823865;29;20038;-60
2021/09/24 04:42:44;;;;;;;21.63;8.57;;;;;;;-149.78;100.00;50260.22;4830792;29;20095;-60
2021/09/24 04:45:10;;;;;;;17.00;8.10;;;;;;;-149.78;100.00;50260.22;4823032;29;20034;-60
2021/09/24 04:47:36;;;;;;;18.45;8.18;;;;;;;-149.78;100.00;50242.63;4798692;29;20134;-60
2021/09/24 04:50:03;;;;;;;18.00;8.75;;;;;;;-149.78;100.00;50236.75;4822942;29;20216;-60
2021/09/24 04:52:29;;;;;;;16.80;7.88;;;;;;;-149.78;100.00;50221.13;4831513;29;20390;-60
2021/09/24 04:54:55;;;;;;;13.75;6.53;;;;;;;-149.78;100.00;50248.50;4823061;29;20042;-60
2021/09/24 04:57:21;;;;;;;17.92;7.10;;;;;;;-149.78;100.00;50236.75;4823729;29;20038;-60
2021/09/24 04:59:47;;;;;;;12.98;6.95;;;;;;;-149.78;100.00;50240.66;4824398;29;20030;-61
2021/09/24 05:02:14;;;;;;;16.17;6.72;;;;;;;-149.78;100.00;50256.31;4829447;29;20038;-59
2021/09/24 05:04:42;;;;;;;14.75;7.32;;;;;;;-149.78;100.00;50232.84;4820346;29;20125;-65
2021/09/24 05:07:08;;;;;;;17.17;6.72;;;;;;;-149.78;100.00;50244.59;4807797;29;20045;-65
2021/09/24 05:09:33;;;;;;;13.95;6.43;;;;;;;-149.78;100.00;50244.59;4822216;29;20428;-65
2021/09/24 05:11:59;;;;;;;14.05;5.90;;;;;;;-149.78;100.00;50225.03;4823245;29;20141;-64
2021/09/24 05:14:24;;;;;;;11.27;5.85;;;;;;;-149.78;100.00;50260.22;4821777;29;20046;-65
2021/09/24 05:16:50;;;;;;;11.02;5.70;;;;;;;-149.78;100.00;50217.19;4807481;29;20031;-65
2021/09/24 05:19:16;;;;;;;10.00;5.72;;;;;;;-149.78;100.00;50248.50;4824184;29;20042;-65
2021/09/24 05:21:42;;;;;;;12.10;5.85;;;;;;;-149.78;100.00;50228.94;4822294;29;20430;-65
2021/09/24 05:24:07;;;;;;;13.23;5.93;;;;;;;-149.78;100.00;50236.75;4824007;29;20042;-65
2021/09/24 05:26:33;;;;;;;14.75;5.68;;;;;;;-149.78;100.00;50232.84;4821907;29;20503;-65
2021/09/24 05:28:58;;;;;;;8.20;4.53;;;;;;;-149.78;100.00;50264.13;4828615;29;20042;-65
2021/09/24 05:31:24;;;;;;;13.65;5.65;;;;;;;-149.78;100.00;50256.31;4823828;29;20545;-65
2021/09/24 05:33:51;;;;;;;12.48;5.82;;;;;;;-149.78;100.00;50215.25;4823137;29;20073;-65
2021/09/24 05:36:17;;;;;;;10.52;5.28;;;;;;;-149.78;100.00;50236.75;4823557;29;20034;-65
2021/09/24 05:38:44;;;;;;;10.45;5.53;;;;;;;-149.78;100.00;50226.97;4817116;29;20034;-65
2021/09/24 05:41:09;;;;;;;16.80;6.05;;;;;;;-149.78;100.00;50244.59;4825758;29;20040;-65
2021/09/24 05:43:36;;;;;;;12.30;5.45;;;;;;;-149.78;100.00;50205.47;4821952;29;20035;-65
2021/09/24 05:46:03;;;;;;;11.40;6.13;;;;;;;-149.78;100.00;50232.84;4821306;29;20490;-65
2021/09/24 05:48:28;;;;;;;16.83;6.22;;;;;;;-149.78;100.00;50219.16;4822901;29;20062;-65
2021/09/24 05:50:55;;;;;;;13.95;5.70;;;;;;;-149.78;100.00;50236.75;4826066;29;20579;-65
2021/09/24 05:53:21;;;;;;;12.50;5.32;;;;;;;-149.78;100.00;50240.66;4823475;29;20062;-65
2021/09/24 05:55:48;;;;;;;12.25;6.10;;;;;;;-149.78;100.00;50252.41;4822059;29;20069;-65
2021/09/24 05:58:14;;;;;;;14.48;6.57;;;;;;;-149.78;100.00;50238.72;4823226;29;20066;-65
2021/09/24 06:00:40;;;;;;;13.70;6.68;;;;;;;-149.78;100.00;50254.34;4803457;29;20099;-65
2021/09/24 06:03:06;;;;;;;13.18;6.80;;;;;;;-149.78;100.00;50279.78;4826837;29;20058;-65
2021/09/24 06:05:33;;;;;;;16.80;6.40;;;;;;;-149.78;100.00;50264.13;4823660;29;20046;-65
2021/09/24 06:07:58;;;;;;;14.10;6.32;;;;;;;-149.78;100.00;50240.66;4822820;29;20038;-65
2021/09/24 06:10:24;;;;;;;13.43;6.93;;;;;;;-149.78;100.00;50215.25;4821889;29;20079;-65
2021/09/24 06:12:52;;;;;;;17.67;7.55;;;;;;;-149.78;100.00;50248.50;4819703;29;20064;-65
2021/09/24 06:15:20;;;;;;;15.15;7.47;;;;;;;-149.78;100.00;50244.59;4819707;29;20057;-65
2021/09/24 06:17:47;;;;;;;13.90;7.28;;;;;;;-149.78;100.00;50264.13;4822831;29;20096;-66
2021/09/24 06:20:13;;;;;;;15.43;7.82;;;;;;;-149.78;100.00;50283.69;4823385;29;20031;-65
2021/09/24 06:22:40;;;;;;;15.45;7.38;;;;;;;-149.78;100.00;50248.50;4824775;29;20056;-65
2021/09/24 06:25:07;;;;;;;16.17;7.63;;;;;;;-149.78;100.00;50225.03;4820438;29;20038;-66
2021/09/24 06:27:33;;;;;;;15.68;7.78;;;;;;;-149.78;100.00;50283.69;4823632;29;20039;-65
2021/09/24 06:29:59;;;;;;;20.05;8.55;;;;;;;-149.78;100.00;50225.03;4825764;29;20046;-65
2021/09/24 06:32:25;;;;;;;17.60;8.02;;;;;;;-149.78;100.00;50254.34;4823071;29;20038;-66
2021/09/24 06:34:50;;;;;;;20.88;6.93;;;;;;;-149.78;100.00;50248.50;4805117;29;20054;-65
2021/09/24 06:37:17;;;;;;;19.05;8.50;;;;;;;-149.78;100.00;50258.28;4825319;29;20402;-65
2021/09/24 06:39:42;;;;;;;13.77;7.38;;;;;;;-149.78;100.00;50244.59;4824410;29;20071;-66
2021/09/24 06:42:09;;;;;;;16.67;8.02;;;;;;;-149.78;100.00;50271.97;4815963;29;20049;-66
2021/09/24 06:44:35;;;;;;;17.05;8.10;;;;;;;-149.78;100.00;50203.50;4818713;29;20079;-66
2021/09/24 06:47:01;;;;;;;18.90;8.50;;;;;;;-149.78;100.00;50258.28;4822366;29;20058;-66
2021/09/24 06:49:28;;;;;;;13.10;7.25;;;;;;;-149.78;100.00;50242.63;4822102;29;20043;-67
2021/09/24 06:51:54;;;;;;;12.60;6.85;;;;;;;-149.78;100.00;50244.59;4827578;29;20038;-65
2021/09/24 06:54:19;;;;;;;14.30;6.50;;;;;;;-149.78;100.00;50264.13;4824042;29;20055;-64
2021/09/24 06:56:46;;;;;;;12.73;6.63;;;;;;;-149.78;100.00;50213.28;4824382;29;20474;-64
2021/09/24 06:59:13;;;;;;;10.95;5.93;;;;;;;-149.78;100.00;50240.66;4796887;29;20031;-66
2021/09/24 07:01:41;;;;;;;12.25;5.93;;;;;;;-149.78;100.00;50228.94;4824682;29;20123;-65
2021/09/24 07:04:07;;;;;;;17.23;6.20;;;;;;;-149.78;100.00;50199.59;4828031;29;20038;-65
2021/09/24 07:06:33;;;;;;;12.32;6.15;;;;;;;-149.78;100.00;50248.50;4815533;29;20094;-65
2021/09/24 07:08:59;;;;;;;10.90;5.75;;;;;;;-149.78;100.00;50252.41;4824910;29;20038;-65
2021/09/24 07:11:25;;;;;;;13.00;5.70;;;;;;;-149.78;100.00;50248.50;4826882;29;20527;-65
2021/09/24 07:13:51;;;;;;;10.95;5.35;;;;;;;-149.78;100.00;50230.88;4814651;29;20166;-65
2021/09/24 07:16:17;;;;;;;10.55;5.25;;;;;;;-149.78;100.00;50271.97;4826173;29;20121;-65
2021/09/24 07:18:42;;;;;;;10.48;4.93;;;;;;;-149.78;100.00;50244.59;4825474;29;20034;-65
2021/09/24 07:21:08;;;;;;;8.43;4.55;;;;;;;-149.78;100.00;50244.59;4824655;29;20054;-65
2021/09/24 07:23:34;;;;;;;7.82;4.22;;;;;;;-149.78;100.00;50209.38;4824194;29;20055;-65
2021/09/24 07:25:59;;;;;;;11.98;4.13;;;;;;;-149.78;100.00;50238.72;4811053;29;20038;-65
2021/09/24 07:28:25;;;;;;;10.82;3.83;;;;;;;-149.78;100.00;50201.56;4827899;29;20043;-65
2021/09/24 07:30:50;;;;;;;7.07;4.00;;;;;;;-149.78;100.00;50228.94;4825739;29;20038;-65
2021/09/24 07:33:16;;;;;;;8.52;3.90;;;;;;;-149.78;100.00;50217.19;4824325;29;20095;-65
2021/09/24 07:35:42;;;;;;;11.20;4.80;;;;;;;-149.78;100.00;50185.91;4823729;29;20455;-65
2021/09/24 07:38:07;;;;;;;9.02;3.78;;;;;;;-149.78;100.00;50185.91;4822372;29;20035;-65
2021/09/24 07:40:33;;;;;;;8.10;3.83;;;;;;;-149.78;100.00;50217.19;4826259;29;20052;-65
2021/09/24 07:42:59;;;;;;;6.47;3.95;;;;;;;-149.78;100.00;50174.19;4833915;29;20113;-65
2021/09/24 07:45:25;;;;;;;5.53;3.47;;;;;;;-149.78;100.00;50187.88;4824420;29;20158;-65
2021/09/24 07:47:51;;;;;;;7.03;3.65;;;;;;;-149.78;100.00;50174.19;4822966;29;20054;-65
2021/09/24 07:50:18;;;;;;;4.30;3.30;;;;;;;-149.78;100.00;50201.56;4824183;29;20126;-65
2021/09/24 07:52:43;;;;;;;5.28;4.28;;;;;;;-149.78;100.00;50209.38;4822440;29;20046;-65
2021/09/24 07:55:09;;;;;;;5.35;3.20;;;;;;;-149.78;100.00;50215.25;4824636;29;20035;-65
2021/09/24 07:57:35;;;;;;;4.32;2.90;;;;;;;-149.78;100.00;50226.97;4823444;29;20042;-65
2021/09/24 08:00:03;;;;;;;8.75;3.03;;;;;;;-149.78;100.00;50207.44;4824730;29;20042;-65
2021/09/24 08:02:29;;;;;;;6.53;2.88;;;;;;;-149.78;100.00;50154.63;4822912;29;20486;-65
2021/09/24 08:04:54;;;;;;;7.57;2.95;;;;;;;-149.78;100.00;50097.91;4827103;29;20042;-66
2021/09/24 08:07:20;;;;;;;8.70;2.25;;;;;;;-149.78;90.25;49996.22;4824585;29;20066;-66
2021/09/24 08:09:45;;;;;;;3.42;2.00;;;;;;;-149.78;68.65;49959.06;4822406;29;20082;-66
2021/09/24 08:12:11;;;;;;;2.90;2.00;;;;;;;-149.78;57.97;49962.97;4825029;29;20384;-66
2021/09/24 08:14:36;;;;;;;2.67;1.88;;;;;;;-149.78;53.25;49896.50;4807875;29;20187;-65
2021/09/24 08:17:03;;;;;;;5.40;2.22;;;;;;;-149.78;51.54;49890.63;4830284;29;20474;-65
2021/09/24 08:19:28;;;;;;;3.28;2.13;;;;;;;-149.78;50.50;49904.31;4825363;29;20042;-64
2021/09/24 08:21:54;;;;;;;4.35;2.58;;;;;;;-149.78;49.10;49873.03;4806922;29;20068;-65
2021/09/24 08:24:20;;;;;;;4.93;2.63;;;;;;;-149.78;47.95;49873.03;4824688;29;20038;-65
2021/09/24 08:26:45;;;;;;;8.75;2.35;;;;;;;-149.78;47.93;49876.94;4822769;29;20050;-64
2021/09/24 08:29:11;;;;;;;2.50;1.75;;;;;;;-149.78;48.26;49919.94;4829792;29;20034;-64
2021/09/24 08:31:37;;;;;;;6.03;2.28;;;;;;;-149.78;48.35;49888.66;4826086;29;20521;-65
2021/09/24 08:34:03;;;;;;;6.38;2.25;;;;;;;-149.78;48.66;49904.31;4832161;29;20041;-65
2021/09/24 08:36:28;;;;;;;3.28;2.05;;;;;;;-149.78;51.61;49923.88;4823128;29;20042;-64
2021/09/24 08:38:55;;;;;;;4.03;2.42;;;;;;;-149.78;51.30;49935.59;4822695;29;20042;-64
2021/09/24 08:41:25;;;;;;;6.35;2.35;;;;;;;-149.78;49.78;49916.03;4807899;29;20392;-64
2021/09/24 08:43:54;;;;;;;5.80;2.33;;;;;;;-149.78;48.12;49896.50;4805981;29;20038;-64
2021/09/24 08:46:20;;;;;;;8.88;2.55;;;;;;;-149.78;48.63;49873.03;4823445;29;20665;-64
2021/09/24 08:48:48;;;;;;;3.15;2.05;;;;;;;-149.78;45.77;49810.44;4823897;29;20034;-65
2021/09/24 08:51:15;;;;;;;3.33;2.10;;;;;;;-149.78;45.52;49830.00;4822857;29;20118;-64
2021/09/24 08:53:41;;;;;;;7.63;2.40;;;;;;;-149.78;45.17;49849.56;4809547;29;20065;-64
2021/09/24 08:56:07;;;;;;;4.05;2.13;;;;;;;-149.78;46.44;49888.66;4821019;29;20102;-64
2021/09/24 08:58:34;;;;;;;3.08;1.75;;;;;;;-149.78;48.49;49857.38;4824107;29;20038;-64
2021/09/24 09:01:00;;;;;;;3.42;1.70;;;;;;;-149.78;50.32;49874.97;4823410;29;20117;-66
2021/09/24 09:03:37;;;;;;;3.90;1.85;;;;;;;-149.78;51.98;49947.34;4827088;29;20038;-66
2021/09/24 09:06:03;;;;;;;7.13;2.22;;;;;;;-149.78;51.23;49916.03;4823137;29;20121;-66
2021/09/24 09:08:32;;;;;;;6.30;2.30;;;;;;;-149.78;49.55;49912.13;4822000;29;20379;-66
2021/09/24 09:11:02;;;;;;;4.55;2.40;;;;;;;-149.78;48.64;49890.63;4825223;29;20057;-66
2021/09/24 09:13:33;;;;;;;5.10;2.50;;;;;;;-149.78;50.88;49896.50;4822212;29;20041;-65
2021/09/24 09:16:02;;;;;;;4.32;2.13;;;;;;;-149.78;49.76;49923.88;4822867;29;20046;-64
2021/09/24 09:18:33;;;;;;;5.75;2.60;;;;;;;-149.78;48.43;49859.34;4821649;29;20030;-64
2021/09/24 09:21:03;;;;;;;6.60;2.17;;;;;;;-149.78;48.50;49884.75;4819649;29;20467;-64
2021/09/24 09:23:30;;;;;;;4.47;2.17;;;;;;;-149.78;46.77;49859.34;4823087;29;20129;-64
2021/09/24 09:25:58;;;;;;;3.08;1.98;;;;;;;-149.78;47.64;49869.13;4823452;29;20395;-65
2021/09/24 09:28:37;;;;;;;5.82;2.30;;;;;;;-149.78;46.73;49824.13;4822383;29;20034;-65
2021/09/24 09:31:17;;;;;;;6.65;2.00;;;;;;;-149.78;47.22;49869.13;4816137;29;20511;-65
2021/09/24 09:33:43;;;;;;;4.22;1.83;;;;;;;-149.78;50.48;49896.50;4819899;29;20444;-64
2021/09/24 09:36:09;;;;;;;3.72;2.40;;;;;;;-149.78;53.78;49931.69;4825973;29;20113;-64
2021/09/24 09:38:41;;;;;;;3.67;2.17;;;;;;;-149.78;60.38;49982.53;4822741;29;20390;-64
2021/09/24 09:41:12;;;;;;;6.57;2.38;;;;;;;-149.78;61.89;49986.44;4824032;29;20038;-63
2021/09/24 09:43:47;;;;;;;2.58;2.15;;;;;;;-149.78;62.17;49953.19;4821824;29;20064;-63
2021/09/24 09:46:22;;;;;;;5.80;2.42;;;;;;;-149.78;61.73;50007.94;4823158;29;20505;-63
2021/09/24 09:49:05;;;;;;;4.72;2.28;;;;;;;-149.78;62.51;50009.91;4822041;29;20593;-65
2021/09/24 09:51:32;;;;;;;4.50;2.53;;;;;;;-149.78;67.74;49998.19;4823256;29;20034;-65
2021/09/24 09:53:58;;;;;;;4.75;2.88;;;;;;;-149.78;68.08;49986.44;4822234;29;20046;-65
2021/09/24 09:56:38;;;;;;;5.13;2.55;;;;;;;-149.78;66.69;50033.38;4823185;29;20484;-65
2021/09/24 09:59:30;;;;;;;3.60;2.03;;;;;;;-149.78;65.65;49966.88;4822226;29;20113;-65
2021/09/24 10:02:19;;;;;;;5.63;2.40;;;;;;;-149.78;60.78;49984.50;4823785;29;20102;-65
2021/09/24 10:04:53;;;;;;;4.88;2.20;;;;;;;-149.78;64.25;49998.19;4817084;29;20042;-65
2021/09/24 10:07:23;;;;;;;4.03;2.38;;;;;;;-149.78;61.75;49945.38;4823025;29;20038;-65
2021/09/24 10:10:03;;;;;;;4.03;2.33;;;;;;;-149.78;60.28;49916.03;4822367;29;20034;-66
2021/09/24 10:12:29;;;;;;;5.10;2.45;;;;;;;-149.78;60.05;49929.72;4822815;29;20119;-67
2021/09/24 10:14:55;;;;;;;4.53;2.20;;;;;;;-149.78;58.00;49931.69;4821516;29;20563;-67
2021/09/24 10:17:22;;;;;;;5.55;2.22;;;;;;;-149.78;58.20;49962.97;4822761;29;20483;-66
2021/09/24 10:19:51;;;;;;;6.10;1.90;;;;;;;-149.78;56.63;49933.66;4824505;29;20038;-67
2021/09/24 10:22:18;;;;;;;2.95;1.92;;;;;;;-149.78;57.09;49933.66;4825223;29;20044;-63
2021/09/24 10:24:45;;;;;;;3.63;2.38;;;;;;;-149.78;65.15;49966.88;4822786;29;20427;-63
2021/09/24 10:27:26;;;;;;;4.32;2.00;;;;;;;-149.78;73.30;50029.47;4822147;29;20035;-65
2021/09/24 10:29:52;;;;;;;5.93;2.00;;;;;;;-149.78;77.96;49994.25;4823637;29;20035;-67
2021/09/24 10:32:24;;;;;;;2.70;1.70;;;;;;;-149.78;84.04;50031.41;4810155;29;20042;-67
2021/09/24 10:35:10;;;;;;;2.35;1.75;;;;;;;-149.78;89.02;50025.56;4826056;29;20039;-65
2021/09/24 10:37:37;;;;;;;2.17;1.90;;;;;;;-149.78;94.03;50045.09;4824106;29;20486;-65
2021/09/24 10:40:26;;;;;;;4.43;2.22;;;;;;;-149.78;94.72;50025.56;4825979;29;20031;-64
2021/09/24 10:43:01;;;;;;;2.58;2.05;;;;;;;-149.78;93.11;50037.28;4828061;29;20038;-65
2021/09/24 10:45:41;;;;;;;3.40;2.08;;;;;;;-149.78;93.55;49994.25;4829413;29;20446;-65
2021/09/24 10:48:18;;;;;;;2.20;2.00;;;;;;;-149.78;98.50;50025.56;4805815;29;20055;-65
2021/09/24 10:50:45;;;;;;;2.90;2.20;;;;;;;-149.78;100.00;50060.75;4808111;29;20107;-65
2021/09/24 10:53:22;;;;;;;3.28;2.00;;;;;;;-149.78;84.05;49994.25;4807498;29;20095;-65
2021/09/24 10:55:54;;;;;;;7.20;3.38;;;;;;;-149.78;77.15;49978.63;4809218;29;20118;-65
2021/09/24 10:58:22;;;;;;;55.58;33.85;;;;;;;-149.78;82.76;50017.72;4811948;29;20474;-66
2021/09/24 11:00:50;;;;;;;17.90;14.07;;;;;;;-149.78;90.15;50041.19;4810906;29;20375;-65
2021/09/24 11:03:22;;;;;;;4.10;3.45;;;;;;;-149.78;100.00;50049.03;4818125;29;20050;-66
2021/09/24 11:06:02;;;;;;;;;;;;;;;-149.78;100.00;50080.31;4811676;29;20042;-64